createdAt,value
2023-06-22T03:43:45.612Z,6.03
2023-06-22T03:46:13.595Z,5.63
2023-06-22T03:48:43.128Z,5.07
2023-06-22T03:51:11.105Z,5.23
2023-06-22T03:53:38.996Z,5.73
2023-06-22T03:56:06.950Z,6.33
2023-06-22T03:58:36.519Z,6.07
2023-06-22T04:01:04.457Z,5.90
2023-06-22T04:03:32.463Z,6.00
2023-06-22T04:06:01.841Z,5.53
2023-06-22T04:08:29.738Z,5.33
2023-06-22T04:10:57.719Z,5.83
2023-06-22T04:13:25.761Z,6.03
2023-06-22T04:15:53.750Z,25.20
2023-06-22T04:18:21.720Z,20.63
2023-06-22T04:20:49.863Z,7.23
2023-06-22T04:23:19.133Z,6.60
2023-06-22T04:25:47.086Z,5.70
2023-06-22T04:28:14.965Z,5.90
2023-06-22T04:30:47.598Z,5.50
2023-06-22T04:33:16.127Z,5.33
2023-06-22T04:35:46.576Z,5.83
2023-06-22T04:38:14.672Z,5.73
2023-06-22T04:40:43.964Z,5.90
2023-06-22T04:43:12.113Z,5.17
2023-06-22T04:45:40.050Z,5.47
2023-06-22T04:48:09.522Z,5.47
2023-06-22T04:50:40.017Z,23.47
2023-06-22T04:53:08.548Z,7.80
2023-06-22T04:55:38.932Z,5.37
2023-06-22T04:58:08.256Z,5.80
2023-06-22T05:00:37.438Z,5.37
2023-06-22T05:03:19.194Z,5.10
2023-06-22T05:05:48.084Z,5.50
2023-06-22T05:08:16.762Z,5.37
2023-06-22T05:10:59.095Z,4.70
2023-06-22T05:13:28.970Z,4.73
2023-06-22T05:16:02.810Z,4.80
2023-06-22T05:18:31.450Z,4.90
2023-06-22T05:21:00.415Z,4.60
2023-06-22T05:23:28.488Z,5.53
2023-06-22T05:25:58.781Z,4.83
2023-06-22T05:28:28.522Z,5.20
2023-06-22T05:30:56.710Z,6.03
2023-06-22T05:33:24.700Z,8.40
2023-06-22T05:35:52.672Z,5.63
2023-06-22T05:38:20.586Z,4.90
2023-06-22T05:40:48.513Z,5.03
2023-06-22T05:43:16.463Z,4.90
2023-06-22T05:45:45.773Z,4.73
2023-06-22T05:48:13.788Z,5.33
2023-06-22T05:50:41.751Z,4.70
2023-06-22T05:53:09.656Z,4.57
2023-06-22T05:55:37.667Z,4.40
2023-06-22T05:58:05.719Z,4.43
2023-06-22T06:00:34.106Z,4.30
2023-06-22T06:03:04.942Z,4.33
2023-06-22T06:05:33.206Z,4.10
2023-06-22T06:08:01.633Z,8.20
2023-06-22T06:10:31.165Z,7.83
2023-06-22T06:12:59.452Z,4.33
2023-06-22T06:15:27.407Z,5.17
2023-06-22T06:17:55.704Z,4.63
2023-06-22T06:20:27.179Z,4.47
2023-06-22T06:22:55.457Z,4.27
2023-06-22T06:25:23.415Z,3.87
2023-06-22T06:27:55.442Z,3.70
2023-06-22T06:30:24.031Z,4.43
2023-06-22T06:32:52.466Z,4.07
2023-06-22T06:35:20.604Z,3.60
2023-06-22T06:37:51.293Z,4.00
2023-06-22T06:40:21.008Z,4.00
2023-06-22T06:42:50.644Z,3.67
2023-06-22T06:45:20.319Z,4.00
2023-06-22T06:47:48.847Z,4.00
2023-06-22T06:50:17.212Z,4.20
2023-06-22T06:52:45.154Z,4.20
2023-06-22T06:55:15.141Z,4.07
2023-06-22T06:57:44.260Z,4.33
2023-06-22T07:00:15.181Z,3.67
2023-06-22T07:02:44.399Z,3.47
2023-06-22T07:05:12.675Z,3.67
2023-06-22T07:07:40.809Z,3.67
2023-06-22T07:10:09.544Z,3.47
2023-06-22T07:12:38.951Z,4.00
2023-06-22T07:15:09.752Z,3.50
2023-06-22T07:17:37.993Z,3.50
2023-06-22T07:20:11.664Z,3.80
2023-06-22T07:22:39.939Z,3.27
2023-06-22T07:25:11.018Z,3.47
2023-06-22T07:27:43.769Z,3.47
2023-06-22T07:30:12.889Z,3.30
2023-06-22T07:32:40.815Z,3.60
2023-06-22T07:35:09.511Z,3.13
2023-06-22T07:37:37.491Z,3.43
2023-06-22T07:40:07.581Z,3.73
2023-06-22T07:42:35.984Z,3.13
2023-06-22T07:45:09.014Z,3.67
2023-06-22T07:47:37.438Z,3.63
2023-06-22T07:50:06.697Z,3.30
2023-06-22T07:52:34.812Z,3.53
2023-06-22T07:55:03.250Z,3.40
2023-06-22T07:57:34.919Z,3.43
2023-06-22T08:00:12.324Z,2.97
2023-06-22T08:02:40.607Z,3.20
2023-06-22T08:05:19.939Z,3.17
2023-06-22T08:07:49.499Z,3.20
2023-06-22T08:10:17.924Z,3.00
2023-06-22T08:12:45.923Z,3.13
2023-06-22T08:15:15.314Z,2.70
2023-06-22T08:17:43.353Z,2.97
2023-06-22T08:20:13.614Z,2.97
2023-06-22T08:22:41.990Z,2.58
2023-06-22T08:25:10.936Z,2.78
2023-06-22T08:27:39.282Z,2.75
2023-06-22T08:30:09.443Z,2.60
2023-06-22T08:32:38.744Z,2.78
2023-06-22T08:35:09.329Z,3.03
2023-06-22T08:37:37.820Z,2.95
2023-06-22T08:40:09.021Z,2.67
2023-06-22T08:42:37.235Z,2.30
2023-06-22T08:45:05.882Z,2.70
2023-06-22T08:47:33.922Z,2.95
2023-06-22T08:50:04.633Z,2.92
2023-06-22T08:52:32.748Z,3.67
2023-06-22T08:55:00.721Z,3.63
2023-06-22T08:57:28.915Z,3.30
2023-06-22T08:59:59.644Z,2.95
2023-06-22T09:02:33.067Z,3.53
2023-06-22T09:05:02.497Z,3.17
2023-06-22T09:07:32.049Z,3.10
2023-06-22T09:10:01.338Z,2.67
2023-06-22T09:12:31.938Z,4.40
2023-06-22T09:15:01.321Z,3.33
2023-06-22T09:17:29.642Z,2.97
2023-06-22T09:19:57.942Z,3.47
2023-06-22T09:22:30.126Z,2.92
2023-06-22T09:25:00.831Z,3.08
2023-06-22T09:27:28.989Z,3.10
2023-06-22T09:29:59.392Z,3.20
2023-06-22T09:32:28.296Z,2.80
2023-06-22T09:34:56.381Z,3.38
2023-06-22T09:37:24.392Z,3.17
2023-06-22T09:39:52.475Z,2.88
2023-06-22T09:42:22.152Z,3.30
2023-06-22T09:44:50.160Z,3.22
2023-06-22T09:47:18.220Z,3.38
2023-06-22T09:49:48.703Z,3.03
2023-06-22T09:52:17.823Z,3.33
2023-06-22T09:54:45.885Z,3.20
2023-06-22T09:57:13.968Z,2.78
2023-06-22T09:59:44.510Z,3.00
2023-06-22T10:02:12.645Z,3.38
2023-06-22T10:04:41.508Z,3.20
2023-06-22T10:07:09.898Z,3.60
2023-06-22T10:09:37.874Z,3.50
2023-06-22T10:12:06.212Z,3.45
2023-06-22T10:14:34.274Z,3.10
2023-06-22T10:17:04.526Z,3.53
2023-06-22T10:19:32.569Z,3.22
2023-06-22T10:22:00.650Z,3.63
2023-06-22T10:24:28.635Z,3.08
2023-06-22T10:26:56.610Z,3.20
2023-06-22T10:29:24.660Z,3.35
2023-06-22T10:31:52.636Z,3.50
2023-06-22T10:34:22.039Z,8.98
2023-06-22T10:36:50.071Z,4.18
2023-06-22T10:39:18.135Z,3.70
2023-06-22T10:41:46.207Z,3.45
2023-06-22T10:44:14.653Z,3.55
2023-06-22T10:46:42.599Z,3.38
2023-06-22T10:49:10.557Z,3.55
2023-06-22T10:51:39.953Z,3.20
2023-06-22T10:54:07.932Z,3.40
2023-06-22T10:56:35.933Z,3.47
2023-06-22T10:59:04.004Z,4.18
2023-06-22T11:01:36.881Z,3.63
2023-06-22T11:04:05.996Z,3.00
2023-06-22T11:06:34.173Z,3.75
2023-06-22T11:09:12.313Z,3.30
2023-06-22T11:11:54.592Z,3.42
2023-06-22T11:14:23.410Z,3.47
2023-06-22T11:16:51.429Z,3.25
2023-06-22T11:19:19.474Z,3.47
2023-06-22T11:21:47.576Z,3.63
2023-06-22T11:24:18.303Z,3.80
2023-06-22T11:26:46.348Z,3.42
2023-06-22T11:29:19.622Z,3.67
2023-06-22T11:32:00.387Z,3.70
2023-06-22T11:34:29.164Z,3.22
2023-06-22T11:36:57.150Z,4.80
2023-06-22T11:39:34.248Z,3.60
2023-06-22T11:42:10.154Z,3.30
2023-06-22T11:44:38.137Z,3.67
2023-06-22T11:47:06.716Z,3.53
2023-06-22T11:49:34.799Z,3.78
2023-06-22T11:52:02.882Z,3.50
2023-06-22T11:54:32.212Z,3.72
2023-06-22T11:57:00.240Z,3.78
2023-06-22T11:59:28.239Z,3.83
2023-06-22T12:01:56.375Z,4.53
2023-06-22T12:04:24.372Z,4.65
2023-06-22T12:06:52.494Z,4.38
2023-06-22T12:09:20.462Z,3.92
2023-06-22T12:11:49.793Z,3.90
2023-06-22T12:14:17.797Z,3.38
2023-06-22T12:16:46.108Z,4.47
2023-06-22T12:19:14.126Z,4.05
2023-06-22T12:21:42.545Z,3.53
2023-06-22T12:24:10.638Z,3.47
2023-06-22T12:26:38.633Z,3.50
2023-06-22T12:29:07.991Z,4.20
2023-06-22T12:31:37.991Z,3.97
2023-06-22T12:34:06.050Z,3.90
2023-06-22T12:36:34.076Z,3.55
2023-06-22T12:39:02.061Z,4.07
2023-06-22T12:41:30.220Z,3.75
2023-06-22T12:43:58.329Z,4.20
2023-06-22T12:46:27.735Z,4.07
2023-06-22T12:48:55.722Z,4.00
2023-06-22T12:51:24.303Z,4.30
2023-06-22T12:53:52.508Z,4.00
2023-06-22T12:56:20.542Z,4.47
2023-06-22T12:58:48.561Z,4.25
2023-06-22T13:01:16.662Z,4.05
2023-06-22T13:03:46.049Z,3.78
2023-06-22T13:06:14.062Z,4.10
2023-06-22T13:09:10.657Z,4.00
2023-06-22T13:11:31.164Z,4.35
2023-06-22T13:13:59.406Z,4.55
2023-06-22T13:16:27.303Z,4.25
2023-06-22T13:18:56.698Z,4.22
2023-06-22T13:21:24.706Z,4.45
2023-06-22T13:23:52.730Z,3.97
2023-06-22T13:26:20.833Z,4.20
2023-06-22T13:28:48.867Z,4.22
2023-06-22T13:31:17.006Z,3.83
2023-06-22T13:33:46.716Z,5.35
2023-06-22T13:36:16.035Z,4.55
2023-06-22T13:38:44.013Z,4.32
2023-06-22T13:41:12.197Z,4.43
2023-06-22T13:43:40.282Z,4.63
2023-06-22T13:46:08.274Z,4.30
2023-06-22T13:48:36.286Z,4.15
2023-06-22T13:51:04.446Z,4.15
2023-06-22T13:53:33.769Z,4.22
2023-06-22T13:56:01.873Z,4.95
2023-06-22T13:58:29.923Z,4.60
2023-06-22T14:00:57.964Z,4.30
2023-06-22T14:03:26.086Z,3.65
2023-06-22T14:05:57.505Z,4.10
2023-06-22T14:08:41.310Z,4.15
2023-06-22T14:11:12.555Z,3.90
2023-06-22T14:13:43.366Z,3.92
2023-06-22T14:16:11.478Z,4.10
2023-06-22T14:18:39.460Z,4.18
2023-06-22T14:21:07.489Z,3.85
2023-06-22T14:23:35.508Z,3.60
2023-06-22T14:26:03.502Z,4.00
2023-06-22T14:28:32.947Z,3.58
2023-06-22T14:31:01.027Z,4.03
2023-06-22T14:33:29.038Z,3.35
2023-06-22T14:35:57.082Z,3.53
2023-06-22T14:38:25.122Z,4.00
2023-06-22T14:41:11.975Z,3.53
2023-06-22T14:43:46.826Z,3.45
2023-06-22T14:46:14.981Z,3.67
2023-06-22T14:48:43.165Z,3.35
2023-06-22T14:51:14.366Z,3.33
2023-06-22T14:53:48.515Z,3.25
2023-06-22T14:56:17.123Z,3.25
2023-06-22T14:58:47.918Z,3.05
2023-06-22T15:01:16.593Z,3.30
2023-06-22T15:03:44.646Z,3.35
2023-06-22T15:06:12.913Z,2.85
2023-06-22T15:08:41.476Z,3.55
2023-06-22T15:11:10.090Z,3.92
2023-06-22T15:13:41.478Z,3.53
2023-06-22T15:16:10.976Z,3.13
2023-06-22T15:18:41.888Z,3.28
2023-06-22T15:21:10.021Z,3.60
2023-06-22T15:23:38.117Z,3.55
2023-06-22T15:26:07.179Z,4.20
2023-06-22T15:28:38.243Z,3.40
2023-06-22T15:31:06.600Z,3.97
2023-06-22T15:33:35.971Z,3.40
2023-06-22T15:36:05.293Z,3.42
2023-06-22T15:38:34.732Z,2.95
2023-06-22T15:41:02.916Z,2.90
2023-06-22T15:43:31.011Z,3.38
2023-06-22T15:45:58.948Z,2.67
2023-06-22T15:48:27.010Z,4.05
2023-06-22T15:50:56.389Z,2.50
2023-06-22T15:53:24.475Z,2.60
2023-06-22T15:55:54.004Z,2.35
2023-06-22T15:58:22.456Z,2.50
2023-06-22T16:00:52.445Z,2.28
2023-06-22T16:03:21.730Z,2.80
2023-06-22T16:05:49.873Z,2.30
2023-06-22T16:08:19.285Z,2.97
2023-06-22T16:10:47.416Z,2.60
2023-06-22T16:13:17.286Z,2.78
2023-06-22T16:15:45.394Z,4.15
2023-06-22T16:18:13.572Z,2.70
2023-06-22T16:20:41.739Z,2.65
2023-06-22T16:23:10.192Z,2.40
2023-06-22T16:25:39.615Z,2.53
2023-06-22T16:28:07.735Z,2.83
2023-06-22T16:30:35.864Z,2.30
2023-06-22T16:33:04.333Z,2.53
2023-06-22T16:35:34.080Z,2.50
2023-06-22T16:38:02.244Z,2.85
2023-06-22T16:40:31.107Z,2.75
2023-06-22T16:43:00.911Z,2.50
2023-06-22T16:45:29.069Z,2.83
2023-06-22T16:47:57.082Z,2.88
2023-06-22T16:50:25.266Z,2.40
2023-06-22T16:52:53.315Z,2.70
2023-06-22T16:55:24.299Z,2.85
2023-06-22T16:57:53.450Z,2.75
2023-06-22T17:00:23.986Z,2.30
2023-06-22T17:02:52.980Z,2.70
2023-06-22T17:05:21.628Z,2.70
2023-06-22T17:07:53.700Z,2.15
2023-06-22T17:10:22.911Z,3.05
2023-06-22T17:12:52.851Z,2.28
2023-06-22T17:15:24.469Z,2.42
2023-06-22T17:17:53.744Z,1.90
2023-06-22T17:20:22.028Z,2.28
2023-06-22T17:22:50.549Z,2.53
2023-06-22T17:25:21.055Z,2.50
2023-06-22T17:27:50.333Z,1.65
2023-06-22T17:30:21.771Z,2.67
2023-06-22T17:32:51.741Z,2.63
2023-06-22T17:35:19.982Z,2.70
2023-06-22T17:37:52.104Z,2.50
2023-06-22T17:40:22.025Z,2.20
2023-06-22T17:42:50.164Z,3.60
2023-06-22T17:45:19.330Z,2.67
2023-06-22T17:47:53.427Z,2.22
2023-06-22T17:50:24.476Z,2.60
2023-06-22T17:52:53.707Z,2.10
2023-06-22T17:55:25.088Z,1.95
2023-06-22T17:57:57.712Z,2.30
2023-06-22T18:00:26.072Z,2.05
2023-06-22T18:02:56.441Z,2.38
2023-06-22T18:05:32.204Z,2.30
2023-06-22T18:08:01.456Z,2.65
2023-06-22T18:10:31.539Z,2.20
2023-06-22T18:13:00.837Z,2.05
2023-06-22T18:15:29.972Z,2.03
2023-06-22T18:18:00.873Z,2.40
2023-06-22T18:20:29.874Z,2.17
2023-06-22T18:22:59.640Z,1.90
2023-06-22T18:25:28.950Z,2.13
2023-06-22T18:27:57.234Z,1.80
2023-06-22T18:30:26.389Z,1.80
2023-06-22T18:32:54.311Z,1.92
2023-06-22T18:35:24.094Z,2.08
2023-06-22T18:37:53.112Z,1.80
2023-06-22T18:40:21.494Z,4.28
2023-06-22T18:42:49.984Z,1.95
2023-06-22T18:45:25.310Z,1.80
2023-06-22T18:48:04.631Z,1.73
2023-06-22T18:50:43.631Z,1.77
2023-06-22T18:53:18.650Z,1.90
2023-06-22T18:55:51.815Z,1.92
2023-06-22T18:58:24.798Z,1.88
2023-06-22T19:00:54.241Z,2.03
2023-06-22T19:03:33.080Z,1.83
2023-06-22T19:06:02.619Z,4.50
2023-06-22T19:09:09.120Z,6.57
2023-06-22T19:11:37.117Z,1.88
2023-06-22T19:14:08.712Z,1.70
2023-06-22T19:16:36.838Z,2.00
2023-06-22T19:19:14.276Z,2.00
2023-06-22T19:21:44.000Z,1.85
2023-06-22T19:24:31.598Z,2.13
2023-06-22T19:27:00.172Z,2.10
2023-06-22T19:29:29.200Z,1.80
2023-06-22T19:31:58.429Z,1.42
2023-06-22T19:34:28.119Z,1.50
2023-06-22T19:37:01.084Z,1.58
2023-06-22T19:39:36.897Z,1.90
2023-06-22T19:42:05.136Z,1.50
2023-06-22T19:44:33.202Z,2.05
2023-06-22T19:47:01.189Z,1.75
2023-06-22T19:49:29.179Z,1.67
2023-06-22T19:52:08.163Z,1.85
2023-06-22T19:54:38.328Z,10.52
2023-06-22T19:57:07.311Z,3.40
2023-06-22T19:59:35.263Z,2.15
2023-06-22T20:02:03.317Z,2.17
2023-06-22T20:04:33.272Z,1.80
2023-06-22T20:07:07.633Z,1.95
2023-06-22T20:09:38.264Z,2.17
2023-06-22T20:12:11.362Z,2.40
2023-06-22T20:14:39.330Z,2.08
2023-06-22T20:17:10.495Z,3.08
2023-06-22T20:19:41.852Z,4.00
2023-06-22T20:22:12.636Z,2.47
2023-06-22T20:24:40.664Z,2.13
2023-06-22T20:27:14.178Z,2.20
2023-06-22T20:29:44.716Z,2.50
2023-06-22T20:32:14.164Z,1.90
2023-06-22T20:34:45.952Z,1.95
2023-06-22T20:37:16.364Z,2.80
2023-06-22T20:39:48.521Z,4.63
2023-06-22T20:42:18.506Z,2.03
2023-06-22T20:44:51.049Z,2.55
2023-06-22T20:47:21.103Z,2.00
2023-06-22T20:49:49.428Z,2.15
2023-06-22T20:52:19.011Z,1.80
2023-06-22T20:54:48.374Z,2.10
2023-06-22T20:57:16.384Z,1.85
2023-06-22T20:59:44.344Z,2.15
2023-06-22T21:02:12.485Z,2.47
2023-06-22T21:04:41.111Z,2.28
2023-06-22T21:07:09.166Z,2.47
2023-06-22T21:09:50.791Z,2.53
2023-06-22T21:12:20.000Z,2.63
2023-06-22T21:14:48.070Z,2.35
2023-06-22T21:17:16.076Z,2.15
2023-06-22T21:19:43.988Z,2.17
2023-06-22T21:22:11.993Z,2.15
2023-06-22T21:24:43.537Z,2.00
2023-06-22T21:27:13.012Z,2.40
2023-06-22T21:29:40.942Z,2.38
2023-06-22T21:32:09.807Z,1.95
2023-06-22T21:34:37.770Z,2.08
2023-06-22T21:37:06.331Z,2.63
2023-06-22T21:39:36.506Z,2.83
2023-06-22T21:42:06.482Z,2.20
2023-06-22T21:44:34.434Z,2.45
2023-06-22T21:47:02.347Z,2.15
2023-06-22T21:49:30.301Z,1.80
2023-06-22T21:51:58.328Z,2.13
2023-06-22T21:54:26.355Z,1.90
2023-06-22T21:56:54.369Z,1.40
2023-06-22T21:59:24.929Z,1.05
2023-06-22T22:01:52.927Z,1.02
2023-06-22T22:04:23.335Z,1.17
2023-06-22T22:06:51.891Z,1.10
2023-06-22T22:09:20.811Z,0.90
2023-06-22T22:11:49.091Z,0.80
2023-06-22T22:14:18.124Z,0.90
2023-06-22T22:16:47.525Z,0.80
2023-06-22T22:19:15.944Z,0.80
2023-06-22T22:21:44.642Z,0.80
2023-06-22T22:24:12.754Z,0.50
2023-06-22T22:26:41.124Z,0.67
2023-06-22T22:29:09.044Z,0.60
2023-06-22T22:31:39.504Z,0.60
2023-06-22T22:34:10.875Z,0.70
2023-06-22T22:36:40.273Z,0.47
2023-06-22T22:39:10.191Z,0.70
2023-06-22T22:41:38.243Z,0.70
2023-06-22T22:44:06.386Z,0.60
2023-06-22T22:46:35.286Z,0.70
2023-06-22T22:49:03.517Z,0.70
2023-06-22T22:51:32.810Z,0.70
2023-06-22T22:54:00.892Z,0.60
2023-06-22T22:56:28.846Z,0.70
2023-06-22T22:58:56.722Z,0.60
2023-06-22T23:01:24.668Z,0.80
2023-06-22T23:03:52.666Z,0.70
2023-06-22T23:06:20.688Z,0.60
2023-06-22T23:08:56.728Z,0.70
2023-06-22T23:11:24.839Z,0.73
2023-06-22T23:13:58.247Z,0.90
2023-06-22T23:16:28.425Z,0.90
2023-06-22T23:18:56.500Z,0.93
2023-06-22T23:21:24.536Z,0.80
2023-06-22T23:23:56.461Z,0.90
2023-06-22T23:26:24.786Z,0.80
2023-06-22T23:28:52.691Z,0.90
2023-06-22T23:31:20.670Z,0.93
2023-06-22T23:33:49.222Z,0.80
2023-06-22T23:36:22.180Z,0.90
2023-06-22T23:38:50.134Z,0.90
2023-06-22T23:41:19.368Z,1.27
2023-06-22T23:43:47.332Z,1.10
2023-06-22T23:46:15.339Z,1.00
2023-06-22T23:48:45.665Z,1.00
2023-06-22T23:51:13.919Z,0.90
2023-06-22T23:53:41.918Z,0.90
2023-06-22T23:56:10.228Z,0.90
2023-06-22T23:58:39.540Z,0.90
